sensor_id;sensor_type;location;lat;lon;timestamp;temperature;humidity
17178;DHT22;8704;52.006;4.374;2022-12-18T00:01:52;-2.90;99.90
17178;DHT22;8704;52.006;4.374;2022-12-18T00:04:22;-2.90;99.90
17178;DHT22;8704;52.006;4.374;2022-12-18T00:06:51;-2.90;99.90
17178;DHT22;8704;52.006;4.374;2022-12-18T00:09:20;-2.90;99.90
17178;DHT22;8704;52.006;4.374;2022-12-18T00:11:50;-2.90;99.90
17178;DHT22;8704;52.006;4.374;2022-12-18T00:14:18;-2.90;99.90
17178;DHT22;8704;52.006;4.374;2022-12-18T00:16:46;-2.90;99.90
17178;DHT22;8704;52.006;4.374;2022-12-18T00:19:16;-2.90;99.90
17178;DHT22;8704;52.006;4.374;2022-12-18T00:21:45;-2.90;99.90
17178;DHT22;8704;52.006;4.374;2022-12-18T00:24:12;-2.90;99.90
17178;DHT22;8704;52.006;4.374;2022-12-18T00:26:40;-2.90;99.90
17178;DHT22;8704;52.006;4.374;2022-12-18T00:29:11;-2.90;99.90
17178;DHT22;8704;52.006;4.374;2022-12-18T00:31:41;-2.90;99.90
17178;DHT22;8704;52.006;4.374;2022-12-18T00:34:11;-2.90;99.90
17178;DHT22;8704;52.006;4.374;2022-12-18T00:36:41;-2.90;99.90
17178;DHT22;8704;52.006;4.374;2022-12-18T00:39:10;-2.90;99.90
17178;DHT22;8704;52.006;4.374;2022-12-18T00:41:38;-3.00;99.90
17178;DHT22;8704;52.006;4.374;2022-12-18T00:44:23;-3.00;99.90
17178;DHT22;8704;52.006;4.374;2022-12-18T00:46:51;-3.00;99.90
17178;DHT22;8704;52.006;4.374;2022-12-18T00:49:20;-1.50;99.90
17178;DHT22;8704;52.006;4.374;2022-12-18T00:51:49;-3.00;99.90
17178;DHT22;8704;52.006;4.374;2022-12-18T00:54:17;-3.00;99.90
17178;DHT22;8704;52.006;4.374;2022-12-18T00:56:45;-3.00;99.90
17178;DHT22;8704;52.006;4.374;2022-12-18T00:59:16;-3.10;99.90
17178;DHT22;8704;52.006;4.374;2022-12-18T01:01:44;-3.10;99.90
17178;DHT22;8704;52.006;4.374;2022-12-18T01:04:13;-3.30;99.90
17178;DHT22;8704;52.006;4.374;2022-12-18T01:06:41;-3.10;99.90
17178;DHT22;8704;52.006;4.374;2022-12-18T01:09:12;-3.10;99.90
17178;DHT22;8704;52.006;4.374;2022-12-18T01:11:40;-3.10;99.90
17178;DHT22;8704;52.006;4.374;2022-12-18T01:14:08;-3.20;99.90
17178;DHT22;8704;52.006;4.374;2022-12-18T01:16:36;-3.20;99.90
17178;DHT22;8704;52.006;4.374;2022-12-18T01:19:04;-3.20;99.90
17178;DHT22;8704;52.006;4.374;2022-12-18T01:21:32;-3.20;99.90
17178;DHT22;8704;52.006;4.374;2022-12-18T01:24:00;-3.30;99.90
17178;DHT22;8704;52.006;4.374;2022-12-18T01:26:30;-3.30;99.90
17178;DHT22;8704;52.006;4.374;2022-12-18T01:28:58;-3.30;99.90
17178;DHT22;8704;52.006;4.374;2022-12-18T01:31:27;-3.30;99.90
17178;DHT22;8704;52.006;4.374;2022-12-18T01:33:56;-3.30;99.90
17178;DHT22;8704;52.006;4.374;2022-12-18T01:36:26;-3.30;99.90
17178;DHT22;8704;52.006;4.374;2022-12-18T01:38:55;-3.30;99.90
17178;DHT22;8704;52.006;4.374;2022-12-18T01:41:26;-3.30;99.90
17178;DHT22;8704;52.006;4.374;2022-12-18T01:47:25;-3.40;99.90
17178;DHT22;8704;52.006;4.374;2022-12-18T01:49:55;-3.30;99.90
17178;DHT22;8704;52.006;4.374;2022-12-18T01:52:25;-3.30;99.90
17178;DHT22;8704;52.006;4.374;2022-12-18T01:54:54;-3.30;99.90
17178;DHT22;8704;52.006;4.374;2022-12-18T01:57:23;-3.30;99.90
17178;DHT22;8704;52.006;4.374;2022-12-18T01:59:53;-3.30;99.90
17178;DHT22;8704;52.006;4.374;2022-12-18T02:02:26;-3.30;99.90
17178;DHT22;8704;52.006;4.374;2022-12-18T02:04:54;-3.30;99.90
17178;DHT22;8704;52.006;4.374;2022-12-18T02:07:27;-3.40;99.90
17178;DHT22;8704;52.006;4.374;2022-12-18T02:10:02;-3.30;99.90
17178;DHT22;8704;52.006;4.374;2022-12-18T02:12:39;-3.40;99.90
17178;DHT22;8704;52.006;4.374;2022-12-18T02:15:13;-2.70;99.90
17178;DHT22;8704;52.006;4.374;2022-12-18T02:17:48;-3.40;99.90
17178;DHT22;8704;52.006;4.374;2022-12-18T02:20:21;-3.40;99.90
17178;DHT22;8704;52.006;4.374;2022-12-18T02:23:06;-3.20;99.90
17178;DHT22;8704;52.006;4.374;2022-12-18T02:26:04;-3.40;99.90
17178;DHT22;8704;52.006;4.374;2022-12-18T02:28:37;-3.40;99.90
17178;DHT22;8704;52.006;4.374;2022-12-18T02:31:11;-3.40;99.90
17178;DHT22;8704;52.006;4.374;2022-12-18T02:33:40;-3.50;99.90
17178;DHT22;8704;52.006;4.374;2022-12-18T02:36:11;-3.50;99.90
17178;DHT22;8704;52.006;4.374;2022-12-18T02:38:41;-3.50;99.90
17178;DHT22;8704;52.006;4.374;2022-12-18T02:41:12;-3.60;99.90
17178;DHT22;8704;52.006;4.374;2022-12-18T02:43:45;-3.60;99.90
17178;DHT22;8704;52.006;4.374;2022-12-18T02:46:28;-3.70;99.90
17178;DHT22;8704;52.006;4.374;2022-12-18T02:49:10;-3.70;99.90
17178;DHT22;8704;52.006;4.374;2022-12-18T02:51:45;-3.70;99.90
17178;DHT22;8704;52.006;4.374;2022-12-18T02:54:23;-3.80;99.90
17178;DHT22;8704;52.006;4.374;2022-12-18T02:56:59;-3.80;99.90
17178;DHT22;8704;52.006;4.374;2022-12-18T02:59:32;-3.80;99.90
17178;DHT22;8704;52.006;4.374;2022-12-18T03:02:06;-3.80;99.90
17178;DHT22;8704;52.006;4.374;2022-12-18T03:04:40;-3.90;99.90
17178;DHT22;8704;52.006;4.374;2022-12-18T03:07:15;-3.90;99.90
17178;DHT22;8704;52.006;4.374;2022-12-18T03:09:47;-3.90;99.90
17178;DHT22;8704;52.006;4.374;2022-12-18T03:12:20;-4.00;99.90
17178;DHT22;8704;52.006;4.374;2022-12-18T03:14:56;-4.00;99.90
17178;DHT22;8704;52.006;4.374;2022-12-18T03:17:27;-4.00;99.90
17178;DHT22;8704;52.006;4.374;2022-12-18T03:20:00;-4.00;99.90
17178;DHT22;8704;52.006;4.374;2022-12-18T03:22:32;-4.00;99.90
17178;DHT22;8704;52.006;4.374;2022-12-18T03:25:02;-4.10;99.90
17178;DHT22;8704;52.006;4.374;2022-12-18T03:27:33;-4.10;99.90
17178;DHT22;8704;52.006;4.374;2022-12-18T03:30:05;-4.10;99.90
17178;DHT22;8704;52.006;4.374;2022-12-18T03:32:39;-4.10;99.90
17178;DHT22;8704;52.006;4.374;2022-12-18T03:35:10;-4.10;99.90
17178;DHT22;8704;52.006;4.374;2022-12-18T03:37:39;-4.20;99.90
17178;DHT22;8704;52.006;4.374;2022-12-18T03:40:08;-4.20;99.90
17178;DHT22;8704;52.006;4.374;2022-12-18T03:42:44;-4.20;99.90
17178;DHT22;8704;52.006;4.374;2022-12-18T03:45:20;-4.10;99.90
17178;DHT22;8704;52.006;4.374;2022-12-18T03:47:57;-4.20;99.90
17178;DHT22;8704;52.006;4.374;2022-12-18T03:50:33;-4.20;99.90
17178;DHT22;8704;52.006;4.374;2022-12-18T03:53:10;-4.20;99.90
17178;DHT22;8704;52.006;4.374;2022-12-18T03:55:40;-4.20;99.90
17178;DHT22;8704;52.006;4.374;2022-12-18T03:58:10;-4.30;99.90
17178;DHT22;8704;52.006;4.374;2022-12-18T04:00:40;-4.30;99.90
17178;DHT22;8704;52.006;4.374;2022-12-18T04:03:09;-4.30;99.90
17178;DHT22;8704;52.006;4.374;2022-12-18T04:05:38;-4.30;99.90
17178;DHT22;8704;52.006;4.374;2022-12-18T04:08:06;-4.30;99.90
17178;DHT22;8704;52.006;4.374;2022-12-18T04:10:37;-4.30;99.90
17178;DHT22;8704;52.006;4.374;2022-12-18T04:13:05;-4.40;99.90
17178;DHT22;8704;52.006;4.374;2022-12-18T04:15:35;-4.40;99.90
17178;DHT22;8704;52.006;4.374;2022-12-18T04:18:03;-4.40;99.90
17178;DHT22;8704;52.006;4.374;2022-12-18T04:20:31;-4.40;99.90
17178;DHT22;8704;52.006;4.374;2022-12-18T04:22:59;-4.40;99.90
17178;DHT22;8704;52.006;4.374;2022-12-18T04:25:27;-4.50;99.90
17178;DHT22;8704;52.006;4.374;2022-12-18T04:27:55;-4.50;99.90
17178;DHT22;8704;52.006;4.374;2022-12-18T04:30:23;-4.50;99.90
17178;DHT22;8704;52.006;4.374;2022-12-18T04:32:53;-4.60;99.90
17178;DHT22;8704;52.006;4.374;2022-12-18T04:35:21;-4.50;99.90
17178;DHT22;8704;52.006;4.374;2022-12-18T04:37:48;-4.60;99.90
17178;DHT22;8704;52.006;4.374;2022-12-18T04:40:17;-4.60;99.90
17178;DHT22;8704;52.006;4.374;2022-12-18T04:42:45;-4.60;99.90
17178;DHT22;8704;52.006;4.374;2022-12-18T04:45:13;-4.60;99.90
17178;DHT22;8704;52.006;4.374;2022-12-18T04:47:41;-4.60;99.90
17178;DHT22;8704;52.006;4.374;2022-12-18T04:50:10;-4.70;99.90
17178;DHT22;8704;52.006;4.374;2022-12-18T04:52:38;-4.70;99.90
17178;DHT22;8704;52.006;4.374;2022-12-18T04:55:06;-4.80;99.90
17178;DHT22;8704;52.006;4.374;2022-12-18T04:57:34;-4.80;99.90
17178;DHT22;8704;52.006;4.374;2022-12-18T05:00:03;-4.80;99.90
17178;DHT22;8704;52.006;4.374;2022-12-18T05:02:31;-4.80;99.90
17178;DHT22;8704;52.006;4.374;2022-12-18T05:04:59;-4.80;99.90
17178;DHT22;8704;52.006;4.374;2022-12-18T05:07:29;-4.80;99.90
17178;DHT22;8704;52.006;4.374;2022-12-18T05:09:56;-4.80;99.90
17178;DHT22;8704;52.006;4.374;2022-12-18T05:12:25;-4.90;99.90
17178;DHT22;8704;52.006;4.374;2022-12-18T05:14:52;-4.90;99.90
17178;DHT22;8704;52.006;4.374;2022-12-18T05:17:20;-4.90;99.90
17178;DHT22;8704;52.006;4.374;2022-12-18T05:19:48;-4.90;99.90
17178;DHT22;8704;52.006;4.374;2022-12-18T05:22:16;-4.90;99.90
17178;DHT22;8704;52.006;4.374;2022-12-18T05:24:46;-4.90;99.90
17178;DHT22;8704;52.006;4.374;2022-12-18T05:27:13;-5.00;99.90
17178;DHT22;8704;52.006;4.374;2022-12-18T05:29:41;-5.00;99.90
17178;DHT22;8704;52.006;4.374;2022-12-18T05:32:09;-5.00;99.90
17178;DHT22;8704;52.006;4.374;2022-12-18T05:34:37;-5.00;99.90
17178;DHT22;8704;52.006;4.374;2022-12-18T05:37:05;-5.00;99.90
17178;DHT22;8704;52.006;4.374;2022-12-18T05:39:33;-5.00;99.90
17178;DHT22;8704;52.006;4.374;2022-12-18T05:42:04;-5.00;99.90
17178;DHT22;8704;52.006;4.374;2022-12-18T05:44:32;-5.00;99.90
17178;DHT22;8704;52.006;4.374;2022-12-18T05:47:00;-5.00;99.90
17178;DHT22;8704;52.006;4.374;2022-12-18T05:49:28;-5.00;99.90
17178;DHT22;8704;52.006;4.374;2022-12-18T05:51:56;-5.10;99.90
17178;DHT22;8704;52.006;4.374;2022-12-18T05:54:26;-5.10;99.90
17178;DHT22;8704;52.006;4.374;2022-12-18T05:56:54;-5.10;99.90
17178;DHT22;8704;52.006;4.374;2022-12-18T05:59:23;-5.10;99.90
17178;DHT22;8704;52.006;4.374;2022-12-18T06:01:51;-5.10;99.90
17178;DHT22;8704;52.006;4.374;2022-12-18T06:04:19;-5.10;99.90
17178;DHT22;8704;52.006;4.374;2022-12-18T06:06:47;-5.20;99.90
17178;DHT22;8704;52.006;4.374;2022-12-18T06:09:15;-5.10;99.90
17178;DHT22;8704;52.006;4.374;2022-12-18T06:11:43;-5.20;99.90
17178;DHT22;8704;52.006;4.374;2022-12-18T06:14:11;-5.20;99.90
17178;DHT22;8704;52.006;4.374;2022-12-18T06:16:41;-5.20;99.90
17178;DHT22;8704;52.006;4.374;2022-12-18T06:19:14;-5.20;99.90
17178;DHT22;8704;52.006;4.374;2022-12-18T06:21:43;-5.20;99.90
17178;DHT22;8704;52.006;4.374;2022-12-18T06:24:11;-5.20;99.90
17178;DHT22;8704;52.006;4.374;2022-12-18T06:26:39;-5.20;99.90
17178;DHT22;8704;52.006;4.374;2022-12-18T06:29:07;-5.30;99.90
17178;DHT22;8704;52.006;4.374;2022-12-18T06:31:36;-5.20;99.90
17178;DHT22;8704;52.006;4.374;2022-12-18T06:34:05;-5.30;99.90
17178;DHT22;8704;52.006;4.374;2022-12-18T06:36:33;-5.30;99.90
17178;DHT22;8704;52.006;4.374;2022-12-18T06:39:01;-5.30;99.90
17178;DHT22;8704;52.006;4.374;2022-12-18T06:41:29;-5.30;99.90
17178;DHT22;8704;52.006;4.374;2022-12-18T06:43:57;-5.30;99.90
17178;DHT22;8704;52.006;4.374;2022-12-18T06:46:26;-5.30;99.90
17178;DHT22;8704;52.006;4.374;2022-12-18T06:48:54;-5.40;99.90
17178;DHT22;8704;52.006;4.374;2022-12-18T06:51:24;-5.30;99.90
17178;DHT22;8704;52.006;4.374;2022-12-18T06:53:52;-5.30;99.90
17178;DHT22;8704;52.006;4.374;2022-12-18T06:56:19;-5.40;99.90
17178;DHT22;8704;52.006;4.374;2022-12-18T06:58:50;-5.40;99.90
17178;DHT22;8704;52.006;4.374;2022-12-18T07:01:19;-5.30;99.90
17178;DHT22;8704;52.006;4.374;2022-12-18T07:03:51;-5.30;99.90
17178;DHT22;8704;52.006;4.374;2022-12-18T07:06:20;-5.40;99.90
17178;DHT22;8704;52.006;4.374;2022-12-18T07:08:51;-5.20;99.90
17178;DHT22;8704;52.006;4.374;2022-12-18T07:11:20;-5.40;99.90
17178;DHT22;8704;52.006;4.374;2022-12-18T07:13:48;-5.40;99.90
17178;DHT22;8704;52.006;4.374;2022-12-18T07:16:18;-5.40;99.90
17178;DHT22;8704;52.006;4.374;2022-12-18T07:18:51;-5.50;99.90
17178;DHT22;8704;52.006;4.374;2022-12-18T07:21:20;-5.40;99.90
17178;DHT22;8704;52.006;4.374;2022-12-18T07:23:50;-5.40;99.90
17178;DHT22;8704;52.006;4.374;2022-12-18T07:26:20;-5.40;99.90
17178;DHT22;8704;52.006;4.374;2022-12-18T07:28:48;-5.50;99.90
17178;DHT22;8704;52.006;4.374;2022-12-18T07:31:18;-5.40;99.90
17178;DHT22;8704;52.006;4.374;2022-12-18T07:33:48;-5.40;99.90
17178;DHT22;8704;52.006;4.374;2022-12-18T07:36:16;-5.50;99.90
17178;DHT22;8704;52.006;4.374;2022-12-18T07:38:47;-5.50;99.90
17178;DHT22;8704;52.006;4.374;2022-12-18T07:41:16;-5.50;99.90
17178;DHT22;8704;52.006;4.374;2022-12-18T07:43:45;-5.50;99.90
17178;DHT22;8704;52.006;4.374;2022-12-18T07:46:14;-5.40;99.90
17178;DHT22;8704;52.006;4.374;2022-12-18T07:48:43;-5.40;99.90
17178;DHT22;8704;52.006;4.374;2022-12-18T07:51:16;-5.40;99.90
17178;DHT22;8704;52.006;4.374;2022-12-18T07:53:45;-5.40;99.90
17178;DHT22;8704;52.006;4.374;2022-12-18T07:56:20;-5.50;99.90
17178;DHT22;8704;52.006;4.374;2022-12-18T07:58:54;-5.40;99.90
17178;DHT22;8704;52.006;4.374;2022-12-18T08:01:22;-5.40;99.90
17178;DHT22;8704;52.006;4.374;2022-12-18T08:03:51;-5.40;99.90
17178;DHT22;8704;52.006;4.374;2022-12-18T08:06:19;-5.40;99.90
17178;DHT22;8704;52.006;4.374;2022-12-18T08:08:51;-5.40;99.90
17178;DHT22;8704;52.006;4.374;2022-12-18T08:11:21;-5.40;99.90
17178;DHT22;8704;52.006;4.374;2022-12-18T08:13:49;-5.40;99.90
17178;DHT22;8704;52.006;4.374;2022-12-18T08:16:17;-5.40;99.90
17178;DHT22;8704;52.006;4.374;2022-12-18T08:18:47;-5.10;99.90
17178;DHT22;8704;52.006;4.374;2022-12-18T08:21:17;-5.40;99.90
17178;DHT22;8704;52.006;4.374;2022-12-18T08:23:47;-5.40;99.90
17178;DHT22;8704;52.006;4.374;2022-12-18T08:26:17;-5.40;99.90
17178;DHT22;8704;52.006;4.374;2022-12-18T08:28:48;-5.40;99.90
17178;DHT22;8704;52.006;4.374;2022-12-18T08:31:16;-5.40;99.90
17178;DHT22;8704;52.006;4.374;2022-12-18T08:33:45;-5.30;99.90
17178;DHT22;8704;52.006;4.374;2022-12-18T08:36:13;-5.30;99.90
17178;DHT22;8704;52.006;4.374;2022-12-18T08:38:41;-5.30;99.90
17178;DHT22;8704;52.006;4.374;2022-12-18T08:41:10;-5.30;99.90
17178;DHT22;8704;52.006;4.374;2022-12-18T08:43:39;-5.30;99.90
17178;DHT22;8704;52.006;4.374;2022-12-18T08:46:30;-5.30;99.90
17178;DHT22;8704;52.006;4.374;2022-12-18T08:48:59;-5.20;99.90
17178;DHT22;8704;52.006;4.374;2022-12-18T08:51:28;-5.20;99.90
17178;DHT22;8704;52.006;4.374;2022-12-18T08:53:56;-5.20;99.90
17178;DHT22;8704;52.006;4.374;2022-12-18T08:56:24;-5.20;99.90
17178;DHT22;8704;52.006;4.374;2022-12-18T08:58:52;-5.20;99.90
17178;DHT22;8704;52.006;4.374;2022-12-18T09:01:21;-5.10;99.90
17178;DHT22;8704;52.006;4.374;2022-12-18T09:03:51;-5.10;99.90
17178;DHT22;8704;52.006;4.374;2022-12-18T09:06:20;-5.10;99.90
17178;DHT22;8704;52.006;4.374;2022-12-18T09:08:49;-5.10;99.90
17178;DHT22;8704;52.006;4.374;2022-12-18T09:11:20;-5.00;99.90
17178;DHT22;8704;52.006;4.374;2022-12-18T09:13:49;-3.90;99.90
17178;DHT22;8704;52.006;4.374;2022-12-18T09:16:18;-4.90;99.90
17178;DHT22;8704;52.006;4.374;2022-12-18T09:18:46;-4.90;99.90
17178;DHT22;8704;52.006;4.374;2022-12-18T09:21:19;-4.90;99.90
17178;DHT22;8704;52.006;4.374;2022-12-18T09:23:49;-4.80;99.90
17178;DHT22;8704;52.006;4.374;2022-12-18T09:26:17;-4.80;99.90
17178;DHT22;8704;52.006;4.374;2022-12-18T09:28:45;-4.80;99.90
17178;DHT22;8704;52.006;4.374;2022-12-18T09:31:17;-4.70;99.90
17178;DHT22;8704;52.006;4.374;2022-12-18T09:33:45;-4.70;99.90
17178;DHT22;8704;52.006;4.374;2022-12-18T09:36:16;-4.70;99.90
17178;DHT22;8704;52.006;4.374;2022-12-18T09:38:44;-4.60;99.90
17178;DHT22;8704;52.006;4.374;2022-12-18T09:41:35;-4.60;99.90
17178;DHT22;8704;52.006;4.374;2022-12-18T09:44:12;-4.50;99.90
17178;DHT22;8704;52.006;4.374;2022-12-18T09:46:45;-4.50;99.90
17178;DHT22;8704;52.006;4.374;2022-12-18T09:49:17;-4.40;99.90
17178;DHT22;8704;52.006;4.374;2022-12-18T09:51:52;-4.40;99.90
17178;DHT22;8704;52.006;4.374;2022-12-18T09:54:25;-4.30;99.90
17178;DHT22;8704;52.006;4.374;2022-12-18T09:56:54;-4.30;99.90
17178;DHT22;8704;52.006;4.374;2022-12-18T09:59:25;-4.30;99.90
17178;DHT22;8704;52.006;4.374;2022-12-18T10:01:54;-4.20;99.90
17178;DHT22;8704;52.006;4.374;2022-12-18T10:04:22;-4.20;99.90
17178;DHT22;8704;52.006;4.374;2022-12-18T10:06:57;-4.10;99.90
17178;DHT22;8704;52.006;4.374;2022-12-18T10:09:38;-4.10;99.90
17178;DHT22;8704;52.006;4.374;2022-12-18T10:12:16;-4.10;99.90
17178;DHT22;8704;52.006;4.374;2022-12-18T10:14:51;-3.00;99.90
17178;DHT22;8704;52.006;4.374;2022-12-18T10:17:26;-4.00;99.90
17178;DHT22;8704;52.006;4.374;2022-12-18T10:19:59;-3.90;99.90
17178;DHT22;8704;52.006;4.374;2022-12-18T10:22:43;-3.90;99.90
17178;DHT22;8704;52.006;4.374;2022-12-18T10:25:19;-3.90;99.90
17178;DHT22;8704;52.006;4.374;2022-12-18T10:27:52;-3.80;99.90
17178;DHT22;8704;52.006;4.374;2022-12-18T10:30:22;-3.80;99.90
17178;DHT22;8704;52.006;4.374;2022-12-18T10:32:50;-3.70;99.90
17178;DHT22;8704;52.006;4.374;2022-12-18T10:35:20;-3.70;99.90
17178;DHT22;8704;52.006;4.374;2022-12-18T10:38:06;-3.60;99.90
17178;DHT22;8704;52.006;4.374;2022-12-18T10:40:49;-3.60;99.90
17178;DHT22;8704;52.006;4.374;2022-12-18T10:43:21;-3.60;99.90
17178;DHT22;8704;52.006;4.374;2022-12-18T10:46:00;-3.50;99.90
17178;DHT22;8704;52.006;4.374;2022-12-18T10:48:28;-3.50;99.90
17178;DHT22;8704;52.006;4.374;2022-12-18T10:50:57;-3.40;99.90
17178;DHT22;8704;52.006;4.374;2022-12-18T10:53:42;-3.40;99.90
17178;DHT22;8704;52.006;4.374;2022-12-18T10:56:20;-3.30;99.90
17178;DHT22;8704;52.006;4.374;2022-12-18T10:58:56;-3.30;99.90
17178;DHT22;8704;52.006;4.374;2022-12-18T11:01:25;-3.30;99.90
17178;DHT22;8704;52.006;4.374;2022-12-18T11:04:02;-3.20;99.90
17178;DHT22;8704;52.006;4.374;2022-12-18T11:06:53;-3.20;99.90
17178;DHT22;8704;52.006;4.374;2022-12-18T11:09:24;-3.10;99.90
17178;DHT22;8704;52.006;4.374;2022-12-18T11:11:53;-3.10;99.90
17178;DHT22;8704;52.006;4.374;2022-12-18T11:14:23;-3.00;99.90
17178;DHT22;8704;52.006;4.374;2022-12-18T11:16:53;-3.00;99.90
17178;DHT22;8704;52.006;4.374;2022-12-18T11:19:42;-3.00;99.90
17178;DHT22;8704;52.006;4.374;2022-12-18T11:22:20;-2.90;99.90
17178;DHT22;8704;52.006;4.374;2022-12-18T11:24:57;-2.90;99.90
17178;DHT22;8704;52.006;4.374;2022-12-18T11:27:52;-2.80;99.90
17178;DHT22;8704;52.006;4.374;2022-12-18T11:30:26;-2.80;99.90
17178;DHT22;8704;52.006;4.374;2022-12-18T11:32:58;-2.80;99.90
17178;DHT22;8704;52.006;4.374;2022-12-18T11:35:42;-2.70;99.90
17178;DHT22;8704;52.006;4.374;2022-12-18T11:38:18;-2.70;99.90
17178;DHT22;8704;52.006;4.374;2022-12-18T11:40:54;-2.60;99.90
17178;DHT22;8704;52.006;4.374;2022-12-18T11:43:27;-2.60;99.90
17178;DHT22;8704;52.006;4.374;2022-12-18T11:46:01;-2.60;99.90
17178;DHT22;8704;52.006;4.374;2022-12-18T11:48:34;-2.60;99.90
17178;DHT22;8704;52.006;4.374;2022-12-18T11:51:08;-2.50;99.90
17178;DHT22;8704;52.006;4.374;2022-12-18T11:53:37;-2.50;99.90
17178;DHT22;8704;52.006;4.374;2022-12-18T11:56:29;-2.50;99.90
17178;DHT22;8704;52.006;4.374;2022-12-18T11:59:05;-2.50;99.90
17178;DHT22;8704;52.006;4.374;2022-12-18T12:01:46;-2.50;99.90
17178;DHT22;8704;52.006;4.374;2022-12-18T12:04:46;-2.40;99.90
17178;DHT22;8704;52.006;4.374;2022-12-18T12:07:23;-2.40;99.90
17178;DHT22;8704;52.006;4.374;2022-12-18T12:10:02;-1.70;99.90
17178;DHT22;8704;52.006;4.374;2022-12-18T12:12:39;-2.40;99.90
17178;DHT22;8704;52.006;4.374;2022-12-18T12:15:27;-2.40;99.90
17178;DHT22;8704;52.006;4.374;2022-12-18T12:18:08;-2.30;99.90
17178;DHT22;8704;52.006;4.374;2022-12-18T12:20:48;-2.30;99.90
17178;DHT22;8704;52.006;4.374;2022-12-18T12:23:26;-2.30;99.90
17178;DHT22;8704;52.006;4.374;2022-12-18T12:26:01;-2.20;99.90
17178;DHT22;8704;52.006;4.374;2022-12-18T12:28:46;-2.20;99.90
17178;DHT22;8704;52.006;4.374;2022-12-18T12:31:25;-2.20;99.90
17178;DHT22;8704;52.006;4.374;2022-12-18T12:34:04;-2.20;99.90
17178;DHT22;8704;52.006;4.374;2022-12-18T12:36:41;-2.10;99.90
17178;DHT22;8704;52.006;4.374;2022-12-18T12:39:16;-2.10;99.90
17178;DHT22;8704;52.006;4.374;2022-12-18T12:41:45;-1.30;99.90
17178;DHT22;8704;52.006;4.374;2022-12-18T12:44:38;-2.10;99.90
17178;DHT22;8704;52.006;4.374;2022-12-18T12:47:13;-2.10;99.90
17178;DHT22;8704;52.006;4.374;2022-12-18T12:49:47;-2.10;99.90
17178;DHT22;8704;52.006;4.374;2022-12-18T12:52:26;-2.00;99.90
17178;DHT22;8704;52.006;4.374;2022-12-18T12:54:56;-2.00;99.90
17178;DHT22;8704;52.006;4.374;2022-12-18T12:57:33;-2.00;99.90
17178;DHT22;8704;52.006;4.374;2022-12-18T13:00:07;-1.70;99.90
17178;DHT22;8704;52.006;4.374;2022-12-18T13:02:42;-1.90;99.90
17178;DHT22;8704;52.006;4.374;2022-12-18T13:05:19;-1.90;99.90
17178;DHT22;8704;52.006;4.374;2022-12-18T13:07:52;-1.90;99.90
17178;DHT22;8704;52.006;4.374;2022-12-18T13:10:30;-0.90;99.90
17178;DHT22;8704;52.006;4.374;2022-12-18T13:13:01;-1.90;99.90
17178;DHT22;8704;52.006;4.374;2022-12-18T13:15:34;-1.90;99.90
17178;DHT22;8704;52.006;4.374;2022-12-18T13:18:19;-1.90;99.90
17178;DHT22;8704;52.006;4.374;2022-12-18T13:20:49;-1.80;99.90
17178;DHT22;8704;52.006;4.374;2022-12-18T13:23:32;-1.80;99.90
17178;DHT22;8704;52.006;4.374;2022-12-18T13:26:29;-1.80;99.90
17178;DHT22;8704;52.006;4.374;2022-12-18T13:28:59;-1.80;99.90
17178;DHT22;8704;52.006;4.374;2022-12-18T13:34:41;-1.70;99.90
17178;DHT22;8704;52.006;4.374;2022-12-18T13:37:39;-1.70;99.90
17178;DHT22;8704;52.006;4.374;2022-12-18T13:43:36;-1.60;99.90
17178;DHT22;8704;52.006;4.374;2022-12-18T13:46:20;-1.60;99.90
17178;DHT22;8704;52.006;4.374;2022-12-18T13:48:52;-1.60;99.90
17178;DHT22;8704;52.006;4.374;2022-12-18T13:51:24;-1.50;99.90
17178;DHT22;8704;52.006;4.374;2022-12-18T13:53:54;-1.50;99.90
17178;DHT22;8704;52.006;4.374;2022-12-18T13:56:24;-1.50;99.90
17178;DHT22;8704;52.006;4.374;2022-12-18T13:59:18;-1.40;99.90
17178;DHT22;8704;52.006;4.374;2022-12-18T14:01:53;-1.40;99.90
17178;DHT22;8704;52.006;4.374;2022-12-18T14:04:25;-1.40;99.90
17178;DHT22;8704;52.006;4.374;2022-12-18T14:06:57;-1.30;99.90
17178;DHT22;8704;52.006;4.374;2022-12-18T14:09:31;-1.30;99.90
17178;DHT22;8704;52.006;4.374;2022-12-18T14:12:03;-1.30;99.90
17178;DHT22;8704;52.006;4.374;2022-12-18T14:14:51;-1.30;99.90
17178;DHT22;8704;52.006;4.374;2022-12-18T14:17:21;-1.30;99.90
17178;DHT22;8704;52.006;4.374;2022-12-18T14:19:51;-1.20;99.90
17178;DHT22;8704;52.006;4.374;2022-12-18T14:22:21;-1.20;99.90
17178;DHT22;8704;52.006;4.374;2022-12-18T14:25:10;-1.20;99.90
17178;DHT22;8704;52.006;4.374;2022-12-18T14:27:42;-1.20;99.90
17178;DHT22;8704;52.006;4.374;2022-12-18T14:30:28;-1.10;99.90
17178;DHT22;8704;52.006;4.374;2022-12-18T14:33:01;-1.20;99.90
17178;DHT22;8704;52.006;4.374;2022-12-18T14:35:29;-1.20;99.90
17178;DHT22;8704;52.006;4.374;2022-12-18T14:38:18;-1.20;99.90
17178;DHT22;8704;52.006;4.374;2022-12-18T14:40:47;-1.20;99.90
17178;DHT22;8704;52.006;4.374;2022-12-18T14:43:15;-1.20;99.90
17178;DHT22;8704;52.006;4.374;2022-12-18T14:45:44;-1.20;99.90
17178;DHT22;8704;52.006;4.374;2022-12-18T14:48:16;-1.10;99.90
17178;DHT22;8704;52.006;4.374;2022-12-18T14:50:57;-1.10;99.90
17178;DHT22;8704;52.006;4.374;2022-12-18T14:53:43;-1.10;99.90
17178;DHT22;8704;52.006;4.374;2022-12-18T14:56:21;-1.10;99.90
17178;DHT22;8704;52.006;4.374;2022-12-18T14:58:51;-0.20;99.90
17178;DHT22;8704;52.006;4.374;2022-12-18T15:01:23;-1.10;99.90
17178;DHT22;8704;52.006;4.374;2022-12-18T15:03:52;-0.30;99.90
17178;DHT22;8704;52.006;4.374;2022-12-18T15:06:32;-1.10;99.90
17178;DHT22;8704;52.006;4.374;2022-12-18T15:09:04;-1.00;99.90
17178;DHT22;8704;52.006;4.374;2022-12-18T15:11:45;-1.00;99.90
17178;DHT22;8704;52.006;4.374;2022-12-18T15:14:32;-0.60;99.90
17178;DHT22;8704;52.006;4.374;2022-12-18T15:17:03;-1.00;99.90
17178;DHT22;8704;52.006;4.374;2022-12-18T15:19:36;-1.00;99.90
17178;DHT22;8704;52.006;4.374;2022-12-18T15:22:24;-1.00;99.90
17178;DHT22;8704;52.006;4.374;2022-12-18T15:24:55;-1.00;99.90
17178;DHT22;8704;52.006;4.374;2022-12-18T15:27:27;-1.00;99.90
17178;DHT22;8704;52.006;4.374;2022-12-18T15:30:20;-1.00;99.90
17178;DHT22;8704;52.006;4.374;2022-12-18T15:32:50;-1.00;99.90
17178;DHT22;8704;52.006;4.374;2022-12-18T15:35:21;-0.90;99.90
17178;DHT22;8704;52.006;4.374;2022-12-18T15:37:49;-0.90;99.90
17178;DHT22;8704;52.006;4.374;2022-12-18T15:40:21;-0.90;99.90
17178;DHT22;8704;52.006;4.374;2022-12-18T15:42:52;-0.90;99.90
17178;DHT22;8704;52.006;4.374;2022-12-18T15:45:38;-0.30;99.90
17178;DHT22;8704;52.006;4.374;2022-12-18T15:48:18;-0.80;99.90
17178;DHT22;8704;52.006;4.374;2022-12-18T15:50:48;-0.80;99.90
17178;DHT22;8704;52.006;4.374;2022-12-18T15:53:16;-0.80;99.90
17178;DHT22;8704;52.006;4.374;2022-12-18T15:55:46;-0.80;99.90
17178;DHT22;8704;52.006;4.374;2022-12-18T15:58:32;-0.80;99.90
17178;DHT22;8704;52.006;4.374;2022-12-18T16:01:00;-0.80;99.90
17178;DHT22;8704;52.006;4.374;2022-12-18T16:03:29;-0.80;99.90
17178;DHT22;8704;52.006;4.374;2022-12-18T16:05:57;-0.80;99.90
17178;DHT22;8704;52.006;4.374;2022-12-18T16:08:29;-0.80;99.90
17178;DHT22;8704;52.006;4.374;2022-12-18T16:11:00;-0.80;99.90
17178;DHT22;8704;52.006;4.374;2022-12-18T16:13:28;-0.80;99.90
17178;DHT22;8704;52.006;4.374;2022-12-18T16:15:56;-0.80;99.90
17178;DHT22;8704;52.006;4.374;2022-12-18T16:18:24;-0.80;99.90
17178;DHT22;8704;52.006;4.374;2022-12-18T16:20:52;-0.80;99.90
17178;DHT22;8704;52.006;4.374;2022-12-18T16:23:20;-0.80;99.90
17178;DHT22;8704;52.006;4.374;2022-12-18T16:25:48;-0.70;99.90
17178;DHT22;8704;52.006;4.374;2022-12-18T16:28:17;-0.80;99.90